Latest Weather Observations for Walgett

IDN60801

Issued at 3:05 pm EST Wednesday 30 July 2014 (issued every 30 minutes, with the page automatically refreshed every 10 minutes)

About weather observations | Map of weather stations | Latest weather observations for NSW | Other Formats
Station Details ID: 052088 Name: WALGETT AIRPORT AWS Lat: -30.04 Lon: 148.12 Height: 133.0 m
Data from the previous 72 hours. | See also: Recent months at Walgett
Date/Time
EST
Temp
°C
App
Temp
°C
Dew
Point
Rel
Hum
%
Delta-T
°C
Wind Press
QNH
hPa
Press
MSL
hPa
Rain
since 9 am
mm
Dir
 
Spd
km/h
Gust
km/h
Spd
kts
Gust
kts
30/03:00pm 24.1 18.7 -1.7 18 11.5 NW 17 20 9 11 1019.2 1019.4 0.0
30/02:30pm 23.7 19.4 -1.3 19 11.1 NW 11 19 6 10 1019.4 - 0.0
30/02:00pm 23.5 18.5 -1.4 19 11.1 WNW 15 22 8 12 1020.0 - 0.0
30/01:30pm 23.4 18.9 -0.1 21 10.7 W 13 20 7 11 1020.4 - 0.0
30/01:00pm 23.1 18.7 0.2 22 10.5 NW 13 22 7 12 1020.8 - 0.0
30/12:30pm 22.7 17.9 -0.1 22 10.3 WNW 15 22 8 12 1021.4 - 0.0
30/12:00pm 21.9 17.1 -0.1 23 9.9 NW 15 20 8 11 1022.0 1022.2 0.0
30/11:30am 21.4 16.9 -0.6 23 9.8 WNW 13 20 7 11 1022.6 - 0.0
30/11:00am 20.6 17.1 1.0 27 8.9 NW 9 15 5 8 1023.1 - 0.0
30/10:30am 19.1 15.1 0.2 28 8.4 NW 11 15 6 8 1023.5 - 0.0
30/10:00am 17.7 13.2 -0.1 30 7.7 NW 13 17 7 9 1023.7 - 0.0
30/09:30am 16.0 11.9 -0.2 33 6.9 NW 11 17 6 9 1023.8 - 0.0
30/09:00am 14.2 10.4 -0.6 36 6.1 NW 9 11 5 6 1023.9 1024.1 0.0
30/08:30am 11.8 8.5 0.0 44 4.9 NNW 7 11 4 6 1023.8 - 0.0
30/08:00am 7.8 5.2 1.0 62 2.8 NNW 4 6 2 3 1023.7 - 0.0
30/07:30am 4.4 2.2 -1.2 67 2.1 CALM 0 0 0 0 1023.4 - 0.0
30/07:00am 3.6 1.4 -1.3 70 1.8 CALM 0 0 0 0 1022.9 - 0.0
30/06:30am 3.6 1.4 -1.7 68 1.9 CALM 0 0 0 0 1022.4 - 0.0
30/06:00am 5.0 2.5 -1.2 64 2.3 NNW 2 6 1 3 1022.1 1022.3 0.0
30/05:30am 4.5 1.0 -1.7 64 2.3 NNW 7 9 4 5 1021.8 - 0.0
30/05:00am 5.9 2.4 -1.0 61 2.6 N 7 9 4 5 1021.6 - 0.0
30/04:30am 4.7 0.8 -1.7 63 2.3 N 9 11 5 6 1021.6 - 0.0
30/04:00am 4.9 1.4 -1.1 65 2.2 NNW 7 9 4 5 1021.7 - 0.0
30/03:30am 4.9 1.4 -1.1 65 2.2 NNW 7 9 4 5 1021.6 - 0.0
30/03:00am 4.5 1.1 -1.7 64 2.3 N 6 7 3 4 1021.6 1021.8 0.0
30/02:30am 5.1 1.6 -1.1 64 2.3 N 7 9 4 5 1021.7 - 0.0
30/02:00am 5.6 2.3 -1.5 60 2.6 N 6 7 3 4 1021.7 - 0.0
30/01:30am 5.0 1.6 -0.6 67 2.1 N 7 9 4 5 1021.8 - 0.0
30/01:00am 3.9 1.3 -1.5 68 2.0 N 2 11 1 6 1021.9 - 0.0
30/12:30am 5.0 2.8 -1.7 62 2.5 CALM 0 0 0 0 1022.1 - 0.0
30/12:00am 5.2 3.0 -1.7 61 2.5 N 0 0 0 0 1022.0 1022.2 0.0
 
Date/Time
EST
Temp
°C
App
Temp
°C
Dew
Point
Rel
Hum
%
Delta-T
°C
Wind Press
QNH
hPa
Press
MSL
hPa
Rain
since 9 am
mm
Dir
 
Spd
km/h
Gust
km/h
Spd
kts
Gust
kts
29/11:30pm 5.4 3.1 -2.2 58 2.8 CALM 0 0 0 0 1022.1 - 0.0
29/11:00pm 6.7 3.5 -0.7 59 2.8 NNW 6 7 3 4 1022.1 - 0.0
29/10:30pm 7.3 3.9 -0.9 56 3.2 NNE 7 9 4 5 1022.1 - 0.0
29/10:00pm 7.9 5.0 -0.8 54 3.4 N 4 6 2 3 1022.0 - 0.0
29/09:30pm 7.8 4.6 -0.7 55 3.3 N 6 6 3 3 1021.9 - 0.0
29/09:00pm 8.3 4.8 -1.0 52 3.6 NNE 7 9 4 5 1021.8 1022.0 0.0
29/08:30pm 9.4 7.2 -1.6 46 4.3 CALM 0 0 0 0 1021.6 - 0.0
29/08:00pm 10.5 8.4 -0.9 45 4.5 CALM 0 0 0 0 1021.3 - 0.0
29/07:30pm 11.5 9.3 -1.3 41 5.1 CALM 0 0 0 0 1021.1 - 0.0
29/07:00pm 12.4 10.1 -2.6 35 5.9 CALM 0 0 0 0 1021.0 - 0.0
29/06:30pm 14.0 10.4 -3.3 30 6.8 W 6 7 3 4 1020.5 - 0.0
29/06:00pm 15.7 12.0 -3.2 27 7.5 WNW 7 7 4 4 1020.3 1020.5 0.0
29/05:30pm 18.6 14.4 -3.5 22 9.0 W 9 11 5 6 1020.0 - 0.0
29/05:00pm 21.1 17.0 -3.4 19 10.3 SW 9 11 5 6 1019.9 - 0.0
29/04:30pm 22.3 18.7 -2.4 19 10.7 W 7 11 4 6 1019.7 - 0.0
29/04:00pm 22.7 19.3 -2.1 19 10.8 W 6 11 3 6 1019.9 - 0.0
29/03:30pm 22.1 16.9 -2.6 19 10.6 NW 15 19 8 10 1020.0 - 0.0
29/03:00pm 22.3 18.0 -1.7 20 10.5 NNW 11 17 6 9 1020.1 1020.3 0.0
29/02:30pm 22.6 18.4 -0.8 21 10.5 WNW 11 17 6 9 1020.2 - 0.0
29/02:00pm 22.1 17.8 -1.9 20 10.5 WNW 11 19 6 10 1020.2 - 0.0
29/01:30pm 22.1 17.6 -0.6 22 10.2 NW 13 19 7 10 1020.6 - 0.0
29/01:00pm 21.4 17.3 0.0 24 9.6 NNW 11 20 6 11 1020.9 - 0.0
29/12:30pm 21.5 16.7 0.1 24 9.7 WNW 15 22 8 12 1021.6 - 0.0
29/12:00pm 21.1 15.6 0.3 25 9.4 W 19 24 10 13 1022.4 1022.6 0.0
29/11:30am 20.8 16.5 3.1 31 8.4 NNW 15 20 8 11 1023.1 - 0.0
29/11:00am 19.4 14.0 2.7 33 7.8 N 20 26 11 14 1023.6 - 0.0
29/10:30am 18.3 13.6 3.0 36 7.1 NNW 17 22 9 12 1024.0 - 0.0
29/10:00am 17.0 12.3 3.0 39 6.5 NNW 17 22 9 12 1024.1 - 0.0
29/09:30am 15.4 11.5 3.5 45 5.5 NW 13 17 7 9 1024.1 - 0.0
29/09:00am 13.6 9.3 3.4 50 4.6 N 15 20 8 11 1023.8 1024.0 0.0
29/08:30am 10.9 7.3 3.2 59 3.4 N 11 15 6 8 1023.7 - 0.0
29/08:00am 6.6 3.1 1.5 70 2.1 NNE 9 9 5 5 1023.6 - 0.0
29/07:30am 4.1 0.5 0.3 76 1.5 NNE 9 9 5 5 1023.4 - 0.0
29/07:00am 2.2 -1.6 -0.4 83 1.0 NE 9 11 5 6 1023.2 - 0.0
29/06:30am 0.6 -3.4 -1.9 83 0.9 NE 9 11 5 6 1022.8 - 0.0
29/06:00am 0.5 -3.5 -2.5 80 1.1 NE 9 9 5 5 1022.6 1022.8 0.0
29/05:30am 1.5 -2.4 -1.2 82 1.0 NNE 9 11 5 6 1022.1 - 0.0
29/05:00am 1.4 -2.1 -1.5 81 1.0 NE 7 9 4 5 1021.9 - 0.0
29/04:30am 2.0 -1.3 -1.6 77 1.3 NE 6 7 3 4 1021.6 - 0.0
29/04:00am 2.6 -0.6 -0.2 82 1.0 NE 6 7 3 4 1021.4 - 0.0
29/03:30am 2.7 -0.6 -0.9 77 1.3 ENE 6 7 3 4 1021.5 - 0.0
29/03:00am 2.1 -1.4 -2.8 70 1.7 E 6 9 3 5 1021.2 1021.4 0.0
29/02:30am 3.0 0.7 -2.3 68 1.9 CALM 0 0 0 0 1021.1 - 0.0
29/02:00am 3.2 0.9 -2.1 68 1.9 CALM 0 0 0 0 1021.5 - 0.0
29/01:30am 3.1 0.1 -2.2 68 1.9 ESE 4 7 2 4 1021.5 - 0.0
29/01:00am 3.2 0.1 -2.3 67 1.9 E 4 7 2 4 1021.8 - 0.0
29/12:30am 2.7 0.2 -3.8 62 2.2 CALM 0 0 0 0 1022.0 - 0.0
29/12:00am 4.3 1.9 -2.8 60 2.5 CALM 0 0 0 0 1022.0 1022.2 0.0
 
Date/Time
EST
Temp
°C
App
Temp
°C
Dew
Point
Rel
Hum
%
Delta-T
°C
Wind Press
QNH
hPa
Press
MSL
hPa
Rain
since 9 am
mm
Dir
 
Spd
km/h
Gust
km/h
Spd
kts
Gust
kts
28/11:30pm 5.1 3.1 -0.3 68 2.1 CALM 0 0 0 0 1022.0 - 0.0
28/11:00pm 5.0 2.9 -0.6 67 2.1 CALM 0 0 0 0 1022.2 - 0.0
28/10:30pm 6.6 4.3 0.5 65 2.4 N 2 7 1 4 1022.2 - 0.0
28/10:00pm 7.3 4.0 0.1 60 2.8 NNE 7 9 4 5 1022.1 - 0.0
28/09:30pm 10.6 7.2 1.9 55 3.7 NNE 9 9 5 5 1022.1 - 0.0
28/09:00pm 10.5 6.8 2.4 57 3.5 NNE 11 11 6 6 1022.1 1022.3 0.0
28/08:30pm 9.7 6.3 2.1 59 3.2 NNE 9 9 5 5 1022.0 - 0.0
28/08:00pm 8.9 5.4 1.1 58 3.2 NNE 9 11 5 6 1022.0 - 0.0
28/07:30pm 10.0 6.5 1.4 55 3.6 NNE 9 9 5 5 1022.0 - 0.0
28/07:00pm 11.7 9.8 0.8 47 4.6 CALM 0 0 0 0 1021.8 - 0.0
28/06:30pm 13.0 11.1 0.7 43 5.2 CALM 0 0 0 0 1021.7 - 0.0
28/06:00pm 15.3 13.6 1.8 40 6.0 CALM 0 0 0 0 1021.5 1021.7 0.0
28/05:30pm 18.3 16.5 1.3 32 7.7 CALM 0 0 0 0 1021.5 - 0.0
28/05:00pm 19.3 16.3 1.8 31 8.0 NNW 7 9 4 5 1021.3 - 0.0
28/04:30pm 20.8 19.1 2.1 29 8.7 CALM 0 6 0 3 1021.0 - 0.0
28/04:00pm 20.4 17.4 1.8 29 8.6 W 7 17 4 9 1021.0 - 0.0
28/03:30pm 20.3 16.5 1.7 29 8.6 W 11 17 6 9 1021.1 - 0.0
28/03:00pm 20.4 17.1 2.3 30 8.4 NW 9 17 5 9 1021.3 1021.5 0.0
28/02:30pm 20.0 16.2 1.9 30 8.4 NNW 11 19 6 10 1021.6 - 0.0
28/02:00pm 20.3 17.1 3.1 32 8.2 SW 9 17 5 9 1021.8 - 0.0
28/01:30pm 19.7 16.4 2.6 32 8.0 SW 9 17 5 9 1022.2 - 0.0
28/01:00pm 19.1 15.7 2.0 32 7.9 NW 9 17 5 9 1022.6 - 0.0
28/12:30pm 19.1 15.5 2.9 34 7.6 WNW 11 20 6 11 1023.3 - 0.0
28/12:00pm 18.7 15.5 2.9 35 7.3 WNW 9 17 5 9 1023.8 1024.0 0.0
28/11:30am 18.4 15.9 4.6 40 6.6 WNW 7 13 4 7 1024.5 - 0.0
28/11:00am 17.2 14.4 5.2 45 5.8 N 9 13 5 7 1025.0 - 0.0
28/10:30am 16.0 12.5 5.6 50 5.0 N 13 17 7 9 1025.3 - 0.0
28/10:00am 14.9 11.5 5.7 54 4.4 NNE 13 17 7 9 1025.5 - 0.0
28/09:30am 13.3 10.2 5.5 59 3.7 NE 11 13 6 7 1025.6 - 0.0
28/09:00am 11.5 8.4 5.4 66 2.8 NE 11 13 6 7 1025.7 1025.9 0.0
28/08:30am 9.1 8.0 4.9 75 1.9 CALM 0 0 0 0 1025.5 - 0.0
28/08:00am 5.7 4.2 2.9 82 1.2 CALM 0 0 0 0 1025.3 - 0.0
28/07:30am 2.1 -1.1 -0.2 85 0.8 N 6 7 3 4 1024.9 - 0.0
28/07:00am 3.1 -0.4 1.5 89 0.6 N 9 9 5 5 1024.5 - 0.0
28/06:30am 4.7 1.6 3.7 93 0.4 NE 9 11 5 6 1024.2 - 0.0
28/06:00am 3.5 0.2 2.5 93 0.4 NE 9 9 5 5 1024.0 1024.2 0.0
28/05:30am 1.6 -2.1 0.0 89 0.6 NNE 9 9 5 5 1023.9 - 0.0
28/05:00am 1.9 -1.2 0.4 90 0.6 NNE 6 9 3 5 1023.7 - 0.0
28/04:30am 1.6 -0.4 -0.2 88 0.7 CALM 0 0 0 0 1023.6 - 0.0
28/04:00am 1.8 -0.3 -0.6 84 0.9 CALM 0 0 0 0 1023.7 - 0.0
28/03:30am 2.1 -1.0 0.2 87 0.7 NNE 6 7 3 4 1023.7 - 0.0
28/03:00am 2.5 -0.6 -0.1 83 1.0 NE 6 7 3 4 1023.6 1023.8 0.0
28/02:30am 3.0 -0.3 0.1 81 1.1 NE 7 9 4 5 1023.4 - 0.0
28/02:00am 3.8 0.6 1.0 82 1.1 NE 7 9 4 5 1023.6 - 0.0
28/01:30am 5.0 2.1 2.4 83 1.1 NNE 7 7 4 4 1023.9 - 0.0
28/01:00am 4.8 1.9 2.7 86 0.9 N 7 9 4 5 1023.9 - 0.0
28/12:30am 5.0 3.4 2.4 83 1.1 CALM 0 0 0 0 1024.0 - 0.0
28/12:00am 5.3 3.7 2.3 81 1.2 CALM 0 0 0 0 1024.5 1024.7 0.0
 
Date/Time
EST
Temp
°C
App
Temp
°C
Dew
Point
Rel
Hum
%
Delta-T
°C
Wind Press
QNH
hPa
Press
MSL
hPa
Rain
since 9 am
mm
Dir
 
Spd
km/h
Gust
km/h
Spd
kts
Gust
kts
27/11:30pm 5.7 4.1 2.2 78 1.4 CALM 0 0 0 0 1024.7 - 0.0
27/11:00pm 6.1 4.5 2.6 78 1.4 CALM 0 0 0 0 1024.9 - 0.0
27/10:30pm 5.9 4.1 1.2 72 1.9 CALM 0 0 0 0 1025.2 - 0.0
27/10:00pm 6.2 3.2 0.9 69 2.1 ESE 6 6 3 3 1025.6 - 0.0
27/09:30pm 6.5 3.5 0.6 66 2.3 SE 6 7 3 4 1025.7 - 0.0
27/09:00pm 7.5 5.3 1.1 64 2.6 SSE 2 6 1 3 1026.0 1026.2 0.0
27/08:30pm 8.8 7.0 1.2 59 3.1 CALM 0 4 0 2 1026.0 - 0.0
27/08:00pm 10.3 7.4 2.7 59 3.3 S 7 9 4 5 1025.8 - 0.0
27/07:30pm 10.9 7.9 2.2 55 3.7 S 7 7 4 4 1025.5 - 0.0
27/07:00pm 11.3 8.1 1.0 49 4.3 S 7 9 4 5 1025.2 - 0.0
27/06:30pm 12.4 9.3 1.1 46 4.8 S 7 9 4 5 1025.0 - 0.0
27/06:00pm 14.2 11.2 1.8 43 5.4 SSW 7 9 4 5 1025.0 1025.2 0.0
27/05:30pm 16.2 12.9 2.2 39 6.3 SSW 9 11 5 6 1024.7 - 0.0
27/05:00pm 18.0 14.4 2.7 36 7.1 SW 11 17 6 9 1024.6 - 0.0
27/04:30pm 18.5 14.6 3.2 36 7.2 SSW 13 17 7 9 1024.3 - 0.0
27/04:00pm 18.8 14.4 2.6 34 7.5 SSW 15 22 8 12 1024.3 - 0.0
27/03:30pm 19.2 14.9 3.4 35 7.5 SSW 15 20 8 11 1024.4 - 0.0

Other Formats:

Comma delimited format used in spreadsheet applications
http://www.bom.gov.au/fwo/IDN60801/IDN60801.95715.axf

JavaScript Object Notation format (JSON) in row-major order
http://www.bom.gov.au/fwo/IDN60801/IDN60801.95715.json